createdAt,value
2018-02-14T00:00:57.503Z,15.00
2018-02-14T00:03:00.792Z,18.25
2018-02-14T00:07:39.756Z,14.68
2018-02-14T00:09:41.088Z,14.10
2018-02-14T00:11:42.155Z,17.77
2018-02-14T00:13:43.573Z,17.23
2018-02-14T00:15:44.655Z,20.62
2018-02-14T00:17:45.697Z,11.98
2018-02-14T00:19:46.732Z,16.20
2018-02-14T00:27:03.807Z,15.93
2018-02-14T00:31:52.051Z,10.95
2018-02-14T00:33:53.511Z,18.95
2018-02-14T00:35:57.104Z,13.68
2018-02-14T00:37:59.437Z,15.30
2018-02-14T00:44:56.884Z,15.07
2018-02-14T00:51:54.057Z,15.18
2018-02-14T01:01:17.482Z,23.35
2018-02-14T01:03:18.512Z,18.62
2018-02-14T01:13:10.297Z,31.98
2018-02-14T01:17:49.826Z,18.55
2018-02-14T01:20:05.817Z,23.48
2018-02-14T01:22:06.800Z,19.62
2018-02-14T01:26:45.493Z,19.35
2018-02-14T01:28:46.552Z,17.35
2018-02-14T01:30:47.596Z,23.62
2018-02-14T01:35:26.602Z,14.70
2018-02-14T01:40:11.403Z,13.88
2018-02-14T01:42:12.917Z,15.77
2018-02-14T01:46:43.155Z,17.60
2018-02-14T01:48:44.574Z,14.60
2018-02-14T01:50:46.596Z,12.65
2018-02-14T01:52:55.572Z,15.68
2018-02-14T02:11:44.901Z,21.65
2018-02-14T02:16:23.331Z,17.33
2018-02-14T02:21:02.784Z,17.80
2018-02-14T02:23:06.553Z,20.35
2018-02-14T02:25:07.769Z,16.67
2018-02-14T02:27:08.821Z,18.25
2018-02-14T02:34:24.659Z,12.85
2018-02-14T02:36:25.641Z,16.17
2018-02-14T02:41:04.192Z,15.93
2018-02-14T02:45:41.744Z,17.62
2018-02-14T02:47:56.175Z,16.08
2018-02-14T02:52:25.051Z,18.37
2018-02-14T02:54:26.068Z,11.77
2018-02-14T03:01:42.506Z,11.45
2018-02-14T03:03:43.574Z,11.38
2018-02-14T03:05:44.533Z,14.00
2018-02-14T03:07:45.635Z,17.63
2018-02-14T03:15:04.340Z,9.55
2018-02-14T03:17:05.657Z,15.95
2018-02-14T03:19:06.638Z,11.40
2018-02-14T03:21:08.518Z,18.43
2018-02-14T03:23:09.531Z,16.35
2018-02-14T03:25:10.596Z,18.62
2018-02-14T03:27:11.657Z,16.80
2018-02-14T03:31:50.795Z,17.58
2018-02-14T03:41:18.449Z,18.20
2018-02-14T03:45:49.234Z,18.55
2018-02-14T03:47:53.037Z,16.15
2018-02-14T03:52:32.440Z,17.67
2018-02-14T03:54:33.399Z,15.60
2018-02-14T03:56:34.444Z,13.53
2018-02-14T03:58:35.501Z,22.17
2018-02-14T04:00:37.242Z,15.57
2018-02-14T04:02:38.200Z,21.37
2018-02-14T04:04:39.910Z,16.30
2018-02-14T04:09:18.027Z,14.73
2018-02-14T04:13:50.305Z,18.98
2018-02-14T04:15:53.908Z,18.62
2018-02-14T04:20:33.746Z,18.10
2018-02-14T04:22:35.482Z,17.10
2018-02-14T04:24:37.713Z,17.45
2018-02-14T04:40:06.329Z,15.90
2018-02-14T04:42:07.336Z,17.62
2018-02-14T04:44:19.010Z,18.87
2018-02-14T04:46:20.024Z,12.77
2018-02-14T04:48:21.306Z,19.08
2018-02-14T04:50:22.292Z,23.67
2018-02-14T04:52:24.369Z,17.50
2018-02-14T05:06:53.361Z,14.57
2018-02-14T05:08:54.349Z,17.37
2018-02-14T05:13:33.500Z,29.67
2018-02-14T05:15:34.440Z,15.80
2018-02-14T05:17:35.380Z,20.40
2018-02-14T05:19:36.327Z,20.27
2018-02-14T05:21:37.299Z,18.25
2018-02-14T05:36:35.431Z,26.92
2018-02-14T05:38:36.411Z,20.48
2018-02-14T05:40:37.609Z,22.87
2018-02-14T05:42:38.583Z,26.55
2018-02-14T05:44:39.552Z,21.80
2018-02-14T05:54:13.724Z,25.98
2018-02-14T05:56:14.960Z,28.77
2018-02-14T05:58:15.955Z,17.35
2018-02-14T06:00:17.445Z,23.47
2018-02-14T06:04:54.915Z,20.23
2018-02-14T06:06:58.345Z,21.50
2018-02-14T06:11:39.559Z,28.87
2018-02-14T06:13:40.649Z,21.08
2018-02-14T06:15:48.436Z,17.30
2018-02-14T06:17:49.384Z,19.02
2018-02-14T06:22:27.615Z,19.17
2018-02-14T06:24:28.564Z,21.93
2018-02-14T06:26:29.543Z,24.73
2018-02-14T06:28:30.514Z,16.33
2018-02-14T06:30:31.491Z,15.63
2018-02-14T06:35:09.008Z,29.27
2018-02-14T06:37:10.232Z,29.93
2018-02-14T06:39:11.558Z,23.58
2018-02-14T06:46:31.802Z,23.48
2018-02-14T06:51:09.790Z,21.17
2018-02-14T06:53:31.417Z,21.30
2018-02-14T06:55:59.283Z,26.40
2018-02-14T07:00:28.370Z,18.20
2018-02-14T07:02:29.666Z,23.07
2018-02-14T07:04:31.300Z,19.65
2018-02-14T07:06:32.759Z,19.00
2018-02-14T07:08:34.040Z,23.08
2018-02-14T07:10:56.205Z,19.02
2018-02-14T07:15:37.921Z,17.58
2018-02-14T07:21:18.818Z,18.98
2018-02-14T07:23:29.566Z,16.27
2018-02-14T07:25:33.308Z,20.50
2018-02-14T07:27:51.336Z,18.40
2018-02-14T07:29:52.701Z,25.48
2018-02-14T07:31:53.965Z,19.55
2018-02-14T07:33:54.965Z,12.98
2018-02-14T07:35:55.916Z,16.43
2018-02-14T07:40:51.282Z,17.62
2018-02-14T07:42:53.099Z,17.77
2018-02-14T07:44:54.102Z,17.35
2018-02-14T07:46:55.085Z,18.40
2018-02-14T07:48:56.046Z,21.10
2018-02-14T07:50:57.090Z,21.70
2018-02-14T07:53:22.357Z,16.50
2018-02-14T07:55:23.339Z,18.10
2018-02-14T07:59:52.808Z,15.30
2018-02-14T08:01:53.788Z,19.20
2018-02-14T08:04:20.623Z,16.67
2018-02-14T08:06:22.335Z,17.20
2018-02-14T08:08:23.339Z,19.00
2018-02-14T08:10:24.326Z,19.63
2018-02-14T08:12:25.298Z,17.83
2018-02-14T08:14:49.766Z,17.23
2018-02-14T08:16:50.733Z,14.15
2018-02-14T08:18:58.080Z,17.97
2018-02-14T08:20:59.219Z,17.30
2018-02-14T08:25:28.570Z,14.60
2018-02-14T08:27:30.288Z,14.77
2018-02-14T08:29:31.222Z,20.10
2018-02-14T08:31:32.162Z,16.60
2018-02-14T08:33:33.111Z,16.87
2018-02-14T08:35:34.065Z,17.70
2018-02-14T08:37:50.435Z,19.03
2018-02-14T08:39:51.391Z,18.60
2018-02-14T08:41:52.373Z,18.70
2018-02-14T08:43:53.407Z,17.70
2018-02-14T08:45:58.203Z,18.00
2018-02-14T08:47:59.184Z,18.83
2018-02-14T08:50:00.152Z,19.83
2018-02-14T08:52:01.139Z,32.47
2018-02-14T08:54:02.119Z,17.73
2018-02-14T08:56:03.055Z,22.90
2018-02-14T08:58:03.996Z,19.60
2018-02-14T09:00:04.959Z,23.73
2018-02-14T09:02:05.927Z,32.50
2018-02-14T09:04:08.529Z,16.67
2018-02-14T09:06:09.663Z,21.23
2018-02-14T09:08:10.636Z,16.67
2018-02-14T09:10:12.227Z,24.13
2018-02-14T09:12:13.168Z,22.07
2018-02-14T09:14:22.923Z,20.70
2018-02-14T09:16:34.387Z,23.43
2018-02-14T09:18:48.797Z,20.23
2018-02-14T09:21:22.790Z,19.57
2018-02-14T09:23:23.942Z,17.60
2018-02-14T09:27:52.769Z,21.37
2018-02-14T09:29:53.743Z,19.63
2018-02-14T09:31:55.344Z,20.85
2018-02-14T09:36:25.188Z,24.17
2018-02-14T09:38:26.159Z,17.90
2018-02-14T09:40:27.112Z,22.60
2018-02-14T09:42:51.209Z,18.90
2018-02-14T09:44:52.662Z,20.17
2018-02-14T09:46:53.852Z,19.60
2018-02-14T09:49:01.746Z,13.60
2018-02-14T09:51:09.042Z,21.97
2018-02-14T09:53:28.074Z,16.37
2018-02-14T09:55:29.065Z,18.60
2018-02-14T09:57:30.104Z,17.00
2018-02-14T09:59:31.117Z,16.75
2018-02-14T10:01:32.086Z,16.17
2018-02-14T10:03:40.926Z,20.30
2018-02-14T10:05:41.937Z,18.80
2018-02-14T10:07:43.667Z,17.80
2018-02-14T10:09:44.614Z,19.00
2018-02-14T10:11:45.641Z,19.02
2018-02-14T10:13:46.621Z,21.47
2018-02-14T10:15:47.587Z,18.90
2018-02-14T10:17:48.698Z,15.68
2018-02-14T10:19:49.731Z,19.07
2018-02-14T10:21:50.707Z,19.13
2018-02-14T10:24:10.270Z,16.17
2018-02-14T10:28:39.144Z,14.70
2018-02-14T10:30:40.862Z,15.23
2018-02-14T10:32:41.900Z,16.45
2018-02-14T10:37:10.647Z,18.70
2018-02-14T10:39:11.647Z,23.80
2018-02-14T10:41:12.619Z,17.87
2018-02-14T10:45:45.543Z,17.33
2018-02-14T10:47:46.798Z,15.20
2018-02-14T10:49:47.793Z,20.30
2018-02-14T10:51:48.787Z,20.37
2018-02-14T10:54:10.103Z,15.03
2018-02-14T10:56:11.133Z,16.57
2018-02-14T10:58:12.116Z,16.13
2018-02-14T11:00:13.127Z,16.13
2018-02-14T11:02:14.118Z,19.57
2018-02-14T11:04:21.383Z,17.50
2018-02-14T11:06:39.553Z,25.83
2018-02-14T11:11:26.113Z,14.48
2018-02-14T11:13:27.387Z,18.43
2018-02-14T11:20:24.259Z,15.53
2018-02-14T11:22:25.321Z,11.53
2018-02-14T11:24:26.268Z,18.02
2018-02-14T11:26:27.246Z,18.20
2018-02-14T11:28:28.195Z,17.20
2018-02-14T11:30:55.575Z,14.33
2018-02-14T11:32:56.600Z,15.03
2018-02-14T11:34:57.548Z,11.50
2018-02-14T11:36:58.500Z,17.57
2018-02-14T11:53:57.247Z,14.52
2018-02-14T11:55:58.215Z,12.40
2018-02-14T11:57:59.177Z,17.83
2018-02-14T12:00:00.186Z,14.47
2018-02-14T12:02:07.703Z,12.77
2018-02-14T12:04:08.652Z,12.33
2018-02-14T12:06:09.590Z,11.30
2018-02-14T12:08:10.547Z,14.67
2018-02-14T12:12:39.703Z,15.10
2018-02-14T12:15:07.344Z,12.83
2018-02-14T12:19:36.516Z,16.40
2018-02-14T12:21:37.458Z,13.93
2018-02-14T12:23:38.430Z,12.10
2018-02-14T12:25:39.371Z,11.30
2018-02-14T12:27:40.322Z,12.60
2018-02-14T12:29:49.490Z,15.27
2018-02-14T12:31:50.438Z,12.80
2018-02-14T12:33:51.446Z,9.43
2018-02-14T12:35:52.378Z,8.90
2018-02-14T12:37:53.365Z,10.10
2018-02-14T12:40:08.103Z,8.07
2018-02-14T12:42:09.068Z,12.43
2018-02-14T12:44:10.783Z,14.03
2018-02-14T12:48:40.739Z,12.93
2018-02-14T12:50:41.663Z,12.87
2018-02-14T12:52:42.595Z,13.48
2018-02-14T12:55:07.914Z,16.23
2018-02-14T12:57:09.578Z,12.13
2018-02-14T12:59:10.619Z,12.43
2018-02-14T13:01:26.100Z,10.77
2018-02-14T13:03:27.789Z,13.07
2018-02-14T13:05:28.750Z,12.50
2018-02-14T13:07:29.683Z,13.05
2018-02-14T13:09:30.631Z,12.70
2018-02-14T13:11:31.682Z,21.90
2018-02-14T13:13:32.631Z,13.50
2018-02-14T13:15:33.566Z,15.10
2018-02-14T13:17:34.478Z,12.20
2018-02-14T13:19:36.196Z,13.87
2018-02-14T13:21:37.135Z,14.80
2018-02-14T13:23:38.066Z,17.03
2018-02-14T13:25:39.023Z,16.60
2018-02-14T13:27:40.021Z,17.17
2018-02-14T13:29:41.710Z,14.53
2018-02-14T13:31:42.642Z,14.43
2018-02-14T13:33:44.339Z,11.77
2018-02-14T13:35:45.270Z,12.65
2018-02-14T13:37:46.231Z,12.87
2018-02-14T13:39:47.226Z,13.53
2018-02-14T13:41:48.138Z,14.90
2018-02-14T13:43:49.082Z,14.45
2018-02-14T13:46:13.470Z,14.87
2018-02-14T13:48:14.401Z,18.47
2018-02-14T13:52:43.111Z,12.53
2018-02-14T13:57:07.938Z,20.00
2018-02-14T13:59:08.921Z,17.43
2018-02-14T14:01:09.886Z,16.80
2018-02-14T14:03:14.579Z,18.37
2018-02-14T14:05:15.553Z,17.07
2018-02-14T14:07:16.487Z,15.18
2018-02-14T14:09:17.421Z,17.60
2018-02-14T14:11:18.338Z,12.53
2018-02-14T14:13:19.289Z,14.38
2018-02-14T14:15:20.243Z,15.60
2018-02-14T14:17:21.247Z,13.80
2018-02-14T14:19:30.981Z,11.37
2018-02-14T14:21:45.736Z,14.85
2018-02-14T14:23:46.702Z,14.10
2018-02-14T14:25:47.655Z,20.87
2018-02-14T14:27:48.600Z,14.23
2018-02-14T14:29:49.570Z,17.30
2018-02-14T14:32:13.761Z,13.53
2018-02-14T14:34:15.623Z,22.63
2018-02-14T14:36:17.370Z,14.80
2018-02-14T14:40:46.563Z,17.93
2018-02-14T14:42:47.572Z,15.20
2018-02-14T14:44:49.304Z,17.80
2018-02-14T14:46:50.278Z,24.13
2018-02-14T14:48:51.991Z,17.77
2018-02-14T14:50:52.976Z,20.00
2018-02-14T14:52:53.910Z,17.63
2018-02-14T14:55:15.190Z,21.00
2018-02-14T14:57:16.210Z,18.30
2018-02-14T14:59:17.910Z,19.45
2018-02-14T15:01:18.880Z,17.20
2018-02-14T15:03:19.848Z,20.73
2018-02-14T15:05:20.808Z,16.43
2018-02-14T15:07:43.627Z,28.60
2018-02-14T15:09:44.581Z,22.03
2018-02-14T15:11:45.538Z,19.63
2018-02-14T15:13:46.611Z,20.33
2018-02-14T15:15:47.604Z,18.67
2018-02-14T15:17:48.559Z,19.60
2018-02-14T15:19:49.559Z,18.83
2018-02-14T15:21:50.515Z,22.00
2018-02-14T15:24:13.569Z,19.17
2018-02-14T15:28:44.419Z,17.70
2018-02-14T15:30:45.378Z,14.53
2018-02-14T15:32:47.106Z,19.77
2018-02-14T15:34:48.248Z,17.90
2018-02-14T15:36:49.231Z,19.20
2018-02-14T15:38:50.472Z,17.23
2018-02-14T15:40:51.462Z,14.63
2018-02-14T15:42:52.445Z,23.53
2018-02-14T15:44:53.432Z,17.03
2018-02-14T15:46:55.130Z,24.60
2018-02-14T15:48:56.087Z,14.37
2018-02-14T15:50:57.043Z,17.87
2018-02-14T15:52:58.002Z,15.30
2018-02-14T15:54:58.967Z,14.50
2018-02-14T15:56:59.914Z,17.93
2018-02-14T15:59:00.897Z,22.27
2018-02-14T16:01:01.847Z,18.85
2018-02-14T16:03:14.247Z,22.30
2018-02-14T16:05:15.198Z,15.97
2018-02-14T16:07:16.157Z,23.20
2018-02-14T16:09:17.098Z,19.03
2018-02-14T16:11:18.038Z,16.67
2018-02-14T16:13:18.961Z,15.23
2018-02-14T16:15:20.634Z,17.80
2018-02-14T16:17:21.628Z,17.40
2018-02-14T16:19:31.475Z,17.83
2018-02-14T16:21:32.596Z,15.87
2018-02-14T16:23:33.551Z,18.20
2018-02-14T16:25:34.519Z,22.43
2018-02-14T16:30:11.618Z,19.55
2018-02-14T16:32:12.546Z,21.07
2018-02-14T16:34:33.504Z,22.53
2018-02-14T16:36:34.638Z,22.10
2018-02-14T16:38:35.620Z,20.23
2018-02-14T16:40:36.588Z,21.47
2018-02-14T16:42:37.579Z,20.57
2018-02-14T16:44:38.524Z,41.80
2018-02-14T16:47:04.350Z,26.50
2018-02-14T16:49:05.339Z,26.63
2018-02-14T16:51:06.288Z,25.03
2018-02-14T16:53:08.000Z,20.20
2018-02-14T16:55:08.947Z,26.42
2018-02-14T16:57:10.111Z,25.17
2018-02-14T16:59:19.589Z,21.10
2018-02-14T17:01:21.319Z,23.43
2018-02-14T17:03:24.275Z,27.80
2018-02-14T17:05:25.226Z,25.20
2018-02-14T17:07:26.163Z,25.60
2018-02-14T17:09:27.098Z,26.40
2018-02-14T17:11:53.451Z,25.37
2018-02-14T17:13:54.414Z,27.00
2018-02-14T17:18:24.607Z,26.10
2018-02-14T17:22:53.466Z,25.33
2018-02-14T17:24:54.459Z,25.95
2018-02-14T17:26:55.461Z,24.27
2018-02-14T17:28:56.442Z,23.30
2018-02-14T17:30:57.367Z,25.40
2018-02-14T17:32:58.284Z,24.90
2018-02-14T17:34:59.948Z,16.77
2018-02-14T17:37:01.603Z,22.83
2018-02-14T17:39:03.299Z,21.10
2018-02-14T17:41:04.266Z,23.37
2018-02-14T17:43:05.238Z,20.87
2018-02-14T17:45:06.212Z,34.33
2018-02-14T17:49:44.603Z,23.73
2018-02-14T17:51:45.542Z,13.37
2018-02-14T17:56:13.704Z,22.00
2018-02-14T17:58:15.400Z,17.30
2018-02-14T18:00:16.430Z,21.63
2018-02-14T18:02:18.114Z,22.60
2018-02-14T18:04:19.078Z,18.83
2018-02-14T18:06:20.015Z,30.67
2018-02-14T18:08:21.050Z,20.07
2018-02-14T18:10:22.035Z,22.50
2018-02-14T18:12:22.980Z,21.47
2018-02-14T18:14:24.138Z,22.57
2018-02-14T18:16:25.118Z,25.27
2018-02-14T18:18:38.570Z,16.87
2018-02-14T18:20:46.319Z,26.43
2018-02-14T18:22:47.278Z,17.47
2018-02-14T18:24:48.283Z,23.10
2018-02-14T18:26:50.240Z,26.00
2018-02-14T18:28:51.352Z,24.20
2018-02-14T18:33:29.638Z,21.03
2018-02-14T18:35:30.588Z,21.97
2018-02-14T18:37:31.527Z,24.50
2018-02-14T18:39:32.451Z,28.40
2018-02-14T18:41:44.242Z,25.73
2018-02-14T18:43:45.922Z,21.07
2018-02-14T18:45:46.878Z,23.40
2018-02-14T18:47:47.879Z,26.20
2018-02-14T18:49:48.800Z,19.50
2018-02-14T18:51:49.810Z,23.53
2018-02-14T18:53:50.775Z,26.53
2018-02-14T18:55:51.736Z,21.70
2018-02-14T19:02:42.814Z,24.20
2018-02-14T19:04:43.766Z,26.57
2018-02-14T19:06:44.771Z,26.43
2018-02-14T19:08:45.840Z,36.73
2018-02-14T19:10:46.863Z,29.10
2018-02-14T19:12:47.863Z,27.47
2018-02-14T19:15:12.996Z,23.20
2018-02-14T19:17:14.053Z,26.47
2018-02-14T19:19:15.024Z,22.07
2018-02-14T19:21:39.868Z,19.37
2018-02-14T19:23:40.835Z,24.87
2018-02-14T19:25:41.785Z,28.00
2018-02-14T19:27:42.791Z,25.83
2018-02-14T19:29:52.216Z,26.77
2018-02-14T19:31:53.179Z,24.20
2018-02-14T19:33:54.126Z,26.07
2018-02-14T19:35:55.119Z,19.10
2018-02-14T19:37:56.050Z,24.70
2018-02-14T19:39:56.975Z,28.13
2018-02-14T19:42:09.530Z,23.50
2018-02-14T19:44:10.764Z,22.60
2018-02-14T19:46:11.721Z,21.60
2018-02-14T19:48:12.738Z,23.23
2018-02-14T19:50:13.698Z,22.47
2018-02-14T19:52:14.680Z,24.08
2018-02-14T19:54:16.368Z,25.00
2018-02-14T19:56:17.347Z,27.53
2018-02-14T19:58:22.336Z,26.50
2018-02-14T20:02:52.087Z,24.53
2018-02-14T20:04:53.051Z,24.23
2018-02-14T20:06:54.013Z,27.03
2018-02-14T20:09:21.536Z,22.33
2018-02-14T20:11:22.551Z,18.83
2018-02-14T20:13:23.539Z,24.80
2018-02-14T20:17:52.536Z,24.77
2018-02-14T20:20:04.014Z,16.98
2018-02-14T20:22:04.930Z,19.50
2018-02-14T20:24:05.927Z,24.43
2018-02-14T20:26:06.906Z,22.20
2018-02-14T20:28:07.847Z,28.70
2018-02-14T20:30:08.903Z,21.40
2018-02-14T20:32:10.085Z,21.30
2018-02-14T20:34:34.357Z,25.48
2018-02-14T20:36:36.167Z,24.57
2018-02-14T20:41:46.184Z,22.45
2018-02-14T20:43:47.912Z,26.20
2018-02-14T20:45:48.946Z,24.83
2018-02-14T20:47:49.907Z,30.10
2018-02-14T20:49:51.956Z,27.80
2018-02-14T20:51:52.950Z,28.07
2018-02-14T20:56:21.967Z,23.00
2018-02-14T20:58:26.412Z,25.33
2018-02-14T21:00:35.565Z,24.70
2018-02-14T21:02:36.568Z,24.70
2018-02-14T21:07:05.429Z,29.53
2018-02-14T21:09:19.751Z,34.60
2018-02-14T21:11:34.756Z,27.85
2018-02-14T21:16:03.445Z,29.53
2018-02-14T21:20:54.091Z,27.00
2018-02-14T21:22:55.130Z,24.53
2018-02-14T21:27:13.347Z,26.73
2018-02-14T21:31:42.273Z,27.30
2018-02-14T21:33:44.024Z,30.45
2018-02-14T21:35:45.732Z,23.00
2018-02-14T21:37:46.819Z,26.90
2018-02-14T21:39:47.814Z,36.87
2018-02-14T21:41:52.270Z,25.97
2018-02-14T21:43:53.275Z,38.13
2018-02-14T21:45:54.339Z,28.80
2018-02-14T21:47:55.262Z,28.07
2018-02-14T21:49:57.051Z,28.77
2018-02-14T21:51:58.051Z,29.80
2018-02-14T21:53:58.963Z,29.73
2018-02-14T21:56:00.415Z,30.47
2018-02-14T21:58:25.020Z,28.85
2018-02-14T22:00:26.008Z,23.77
2018-02-14T22:02:52.287Z,28.57
2018-02-14T22:07:22.170Z,27.13
2018-02-14T22:09:25.716Z,33.37
2018-02-14T22:11:26.680Z,33.60
2018-02-14T22:13:27.687Z,31.10
2018-02-14T22:15:28.695Z,32.47
2018-02-14T22:17:29.681Z,30.05
2018-02-14T22:19:30.691Z,27.10
2018-02-14T22:26:27.422Z,37.83
2018-02-14T22:28:28.387Z,34.30
2018-02-14T22:35:25.728Z,29.43
2018-02-14T22:37:26.739Z,26.30
2018-02-14T22:39:27.702Z,30.57
2018-02-14T22:41:28.720Z,26.67
2018-02-14T22:43:29.691Z,26.57
2018-02-14T22:45:30.674Z,32.15
2018-02-14T22:47:31.633Z,27.90
2018-02-14T22:49:33.492Z,26.33
2018-02-14T22:51:34.468Z,28.80
2018-02-14T22:53:35.498Z,30.97
2018-02-14T22:55:51.572Z,32.40
2018-02-14T22:57:52.639Z,27.73
2018-02-14T22:59:53.639Z,30.40
2018-02-14T23:01:54.600Z,31.40
2018-02-14T23:03:55.622Z,30.83
2018-02-14T23:06:00.148Z,26.40
2018-02-14T23:08:06.778Z,28.60
2018-02-14T23:10:07.982Z,27.07
2018-02-14T23:12:08.919Z,34.72
2018-02-14T23:14:09.929Z,28.90
2018-02-14T23:16:10.955Z,32.28
2018-02-14T23:18:11.972Z,24.50
2018-02-14T23:20:12.934Z,34.55
2018-02-14T23:22:13.918Z,26.17
2018-02-14T23:24:14.907Z,37.10
2018-02-14T23:26:15.858Z,30.85
2018-02-14T23:28:16.920Z,34.50
2018-02-14T23:30:18.011Z,31.33
2018-02-14T23:32:22.386Z,33.65
2018-02-14T23:37:21.277Z,28.17
2018-02-14T23:41:50.371Z,34.75
2018-02-14T23:44:24.439Z,40.03
2018-02-14T23:46:25.537Z,31.95
2018-02-14T23:48:27.339Z,30.83
2018-02-14T23:50:28.299Z,32.93
2018-02-14T23:52:29.348Z,33.42
2018-02-14T23:56:54.640Z,30.70
2018-02-14T23:58:56.402Z,31.43
